createdAt,value
2022-10-23T00:00:03.387Z,329.857
2022-10-23T00:01:03.266Z,278.429
2022-10-23T00:02:03.361Z,212.714
2022-10-23T00:03:03.327Z,159.143
2022-10-23T00:04:03.352Z,103.429
2022-10-23T00:05:03.380Z,102.357
2022-10-23T00:06:03.405Z,88.3571
2022-10-23T00:07:03.437Z,56.4286
2022-10-23T00:08:03.471Z,59.2143
2022-10-23T00:09:03.515Z,62.6429
2022-10-23T00:10:03.517Z,64.5
2022-10-23T00:11:03.544Z,51.8571
2022-10-23T00:12:03.570Z,49
2022-10-23T00:13:03.608Z,39.3571
2022-10-23T00:14:03.654Z,39.4286
2022-10-23T00:15:03.668Z,36.5
2022-10-23T00:16:03.697Z,39.1429
2022-10-23T00:17:03.719Z,31.5
2022-10-23T00:18:03.768Z,22.4286
2022-10-23T00:19:03.801Z,24.1429
2022-10-23T00:20:03.825Z,22.1429
2022-10-23T00:21:03.859Z,23.7143
2022-10-23T00:22:03.886Z,20.5
2022-10-23T00:23:03.923Z,25.5
2022-10-23T00:24:04.035Z,20.9286
2022-10-23T00:25:03.994Z,23.5
2022-10-23T00:26:04.025Z,35.5
2022-10-23T00:27:04.051Z,38.6429
2022-10-23T00:28:04.083Z,44.5
2022-10-23T00:29:04.116Z,51.2143
2022-10-23T00:30:04.169Z,62.3571
2022-10-23T00:31:04.198Z,57.4286
2022-10-23T00:32:04.213Z,79.8571
2022-10-23T00:33:04.241Z,89.6429
2022-10-23T00:34:04.267Z,93.5
2022-10-23T00:35:04.298Z,60.6429
2022-10-23T00:36:04.352Z,63.3571
2022-10-23T00:37:04.363Z,53.3571
2022-10-23T00:38:04.389Z,43.9286
2022-10-23T00:39:04.422Z,42.8571
2022-10-23T00:40:04.457Z,39.2143
2022-10-23T00:41:04.511Z,45.4286
2022-10-23T00:42:04.523Z,35.4286
2022-10-23T00:43:04.554Z,36.1429
2022-10-23T00:44:04.598Z,26.4286
2022-10-23T00:45:04.602Z,35.8571
2022-10-23T00:46:04.639Z,29.5
2022-10-23T00:47:04.675Z,31.1429
2022-10-23T00:48:04.704Z,26.7143
2022-10-23T00:49:04.821Z,27.8571
2022-10-23T00:50:04.759Z,28.5
2022-10-23T00:51:04.802Z,26.3571
2022-10-23T00:52:04.838Z,22
2022-10-23T00:53:04.851Z,17.6429
2022-10-23T00:54:23.590Z,27.3571
2022-10-23T00:55:04.912Z,12.6429
2022-10-23T00:56:04.937Z,20.6429
2022-10-23T00:57:04.989Z,13
2022-10-23T00:58:05.003Z,15.6429
2022-10-23T00:59:05.033Z,18.5
2022-10-23T01:00:05.116Z,19
2022-10-23T01:01:05.198Z,15.2143
2022-10-23T01:02:05.287Z,23.5
2022-10-23T01:03:05.155Z,19.4286
2022-10-23T01:04:05.196Z,20.7143
2022-10-23T01:05:05.222Z,23
2022-10-23T01:06:05.279Z,24.5
2022-10-23T01:07:05.286Z,20.4286
2022-10-23T01:08:05.311Z,25.3571
2022-10-23T01:09:05.353Z,18.2143
2022-10-23T01:10:05.375Z,18.2143
2022-10-23T01:11:05.406Z,22.9286
2022-10-23T01:12:05.438Z,7.35714
2022-10-23T01:13:05.474Z,5.5
2022-10-23T01:14:05.509Z,5.35714
2022-10-23T01:15:05.531Z,5.21429
2022-10-23T01:16:05.563Z,5.5
2022-10-23T01:17:05.610Z,5.5
2022-10-23T01:18:05.631Z,6
2022-10-23T01:19:05.650Z,5.92857
2022-10-23T01:20:05.700Z,6
2022-10-23T01:21:05.717Z,5.64286
2022-10-23T01:22:05.751Z,6.14286
2022-10-23T01:23:05.795Z,5.85714
2022-10-23T01:24:05.825Z,5.42857
2022-10-23T01:25:05.859Z,6
2022-10-23T01:26:05.897Z,5.5
2022-10-23T01:27:05.939Z,6.35714
2022-10-23T01:28:05.970Z,5.5
2022-10-23T01:29:06.031Z,6.42857
2022-10-23T01:30:06.112Z,5.85714
2022-10-23T01:31:06.147Z,5.85714
2022-10-23T01:32:06.154Z,6.14286
2022-10-23T01:33:06.161Z,5.5
2022-10-23T01:34:06.194Z,5.5
2022-10-23T01:35:06.226Z,5.5
2022-10-23T01:36:06.266Z,6.35714
2022-10-23T01:37:06.325Z,5.92857
2022-10-23T01:38:06.354Z,6.14286
2022-10-23T01:39:06.484Z,6.14286
2022-10-23T01:40:06.424Z,6.21429
2022-10-23T01:41:06.481Z,6
2022-10-23T01:42:06.494Z,6
2022-10-23T01:43:06.557Z,6.35714
2022-10-23T01:44:06.569Z,5.85714
2022-10-23T01:45:06.634Z,5.92857
2022-10-23T01:46:06.638Z,5.71429
2022-10-23T01:47:06.679Z,5.64286
2022-10-23T01:48:06.745Z,5.92857
2022-10-23T01:49:06.757Z,6
2022-10-23T01:50:06.797Z,6.14286
2022-10-23T01:51:06.841Z,5.5
2022-10-23T01:52:06.890Z,6.21429
2022-10-23T01:53:06.935Z,5.85714
2022-10-23T01:54:06.951Z,5.85714
2022-10-23T01:55:06.997Z,6.14286
2022-10-23T01:56:07.044Z,6.5
2022-10-23T01:57:07.069Z,6
2022-10-23T01:58:07.093Z,6.14286
2022-10-23T01:59:07.139Z,6
2022-10-23T02:00:07.176Z,5.92857
2022-10-23T02:01:07.273Z,6.35714
2022-10-23T02:02:07.393Z,6.71429
2022-10-23T02:03:07.278Z,6.92857
2022-10-23T02:04:07.308Z,6.35714
2022-10-23T02:05:07.339Z,6.5
2022-10-23T02:06:07.361Z,6.5
2022-10-23T02:07:07.387Z,7.35714
2022-10-23T02:08:07.422Z,6.85714
2022-10-23T02:09:07.468Z,6.42857
2022-10-23T02:10:07.476Z,6.64286
2022-10-23T02:11:07.511Z,7.21429
2022-10-23T02:12:07.551Z,6.71429
2022-10-23T02:13:07.574Z,6.64286
2022-10-23T02:14:07.630Z,6.42857
2022-10-23T02:15:07.686Z,6.5
2022-10-23T02:16:07.690Z,6.92857
2022-10-23T02:17:07.717Z,6.64286
2022-10-23T02:18:07.746Z,6.35714
2022-10-23T02:19:07.781Z,6.85714
2022-10-23T02:20:07.851Z,6.5
2022-10-23T02:21:07.860Z,6.5
2022-10-23T02:22:07.893Z,6.5
2022-10-23T02:23:07.927Z,6.5
2022-10-23T02:24:07.968Z,6.85714
2022-10-23T02:25:08.038Z,6.85714
2022-10-23T02:26:08.040Z,6.14286
2022-10-23T02:27:08.076Z,6.21429
2022-10-23T02:28:08.118Z,6.71429
2022-10-23T02:29:08.165Z,6.71429
2022-10-23T02:30:08.194Z,6.42857
2022-10-23T02:31:08.235Z,6.64286
2022-10-23T02:32:08.257Z,6.42857
2022-10-23T02:33:08.292Z,6.21429
2022-10-23T02:34:08.321Z,6.14286
2022-10-23T02:35:08.363Z,6
2022-10-23T02:36:08.427Z,6.42857
2022-10-23T02:37:08.473Z,6.14286
2022-10-23T02:38:08.472Z,6.35714
2022-10-23T02:39:08.528Z,6.21429
2022-10-23T02:40:08.551Z,6.35714
2022-10-23T02:41:08.589Z,6.14286
2022-10-23T02:42:08.622Z,5.71429
2022-10-23T02:43:08.676Z,6.5
2022-10-23T02:44:08.709Z,6
2022-10-23T02:45:08.745Z,6.35714
2022-10-23T02:46:08.779Z,5.92857
2022-10-23T02:47:08.814Z,5.92857
2022-10-23T02:48:08.868Z,6.35714
2022-10-23T02:49:08.880Z,6
2022-10-23T02:50:08.928Z,5.42857
2022-10-23T02:51:08.962Z,6.35714
2022-10-23T02:52:08.987Z,6.21429
2022-10-23T02:53:09.027Z,6.92857
2022-10-23T02:54:09.081Z,5.92857
2022-10-23T02:55:09.101Z,6.5
2022-10-23T02:56:09.144Z,6.64286
2022-10-23T02:57:09.173Z,6.5
2022-10-23T02:58:09.199Z,6.5
2022-10-23T02:59:09.236Z,7
2022-10-23T03:00:09.281Z,6.5
2022-10-23T03:01:09.350Z,6.85714
2022-10-23T03:02:09.399Z,6.21429
2022-10-23T03:03:09.368Z,6.85714
2022-10-23T03:04:09.408Z,7
2022-10-23T03:05:09.433Z,6.42857
2022-10-23T03:06:09.467Z,6.42857
2022-10-23T03:07:09.501Z,6
2022-10-23T03:08:09.550Z,6.85714
2022-10-23T03:09:09.601Z,6.14286
2022-10-23T03:10:09.617Z,6.5
2022-10-23T03:11:09.665Z,6
2022-10-23T03:12:09.700Z,6.35714
2022-10-23T03:13:09.725Z,6.35714
2022-10-23T03:14:09.778Z,6.5
2022-10-23T03:15:09.824Z,6.35714
2022-10-23T03:16:09.850Z,6.42857
2022-10-23T03:17:09.876Z,6.35714
2022-10-23T03:18:09.909Z,6.64286
2022-10-23T03:19:09.955Z,5.64286
2022-10-23T03:20:09.996Z,6
2022-10-23T03:21:10.027Z,6.14286
2022-10-23T03:22:10.055Z,6.42857
2022-10-23T03:23:10.100Z,6.35714
2022-10-23T03:24:10.137Z,6.35714
2022-10-23T03:25:10.169Z,5.92857
2022-10-23T03:26:10.208Z,6.64286
2022-10-23T03:27:10.269Z,6.14286
2022-10-23T03:28:10.281Z,6.35714
2022-10-23T03:29:10.313Z,6.5
2022-10-23T03:30:10.358Z,6
2022-10-23T03:31:10.395Z,6.64286
2022-10-23T03:32:10.435Z,6.5
2022-10-23T03:33:10.467Z,5.71429
2022-10-23T03:34:10.490Z,5.35714
2022-10-23T03:35:10.528Z,6.14286
2022-10-23T03:36:10.549Z,5.85714
2022-10-23T03:37:10.579Z,5.64286
2022-10-23T03:38:10.643Z,5.5
2022-10-23T03:39:10.664Z,5.64286
2022-10-23T03:40:10.681Z,6.35714
2022-10-23T03:41:10.720Z,5.85714
2022-10-23T03:42:10.768Z,5.71429
2022-10-23T03:43:10.820Z,5.71429
2022-10-23T03:44:10.842Z,5.71429
2022-10-23T03:45:10.874Z,6.35714
2022-10-23T03:46:10.922Z,5.64286
2022-10-23T03:47:10.979Z,5.64286
2022-10-23T03:48:11.014Z,5.71429
2022-10-23T03:49:11.083Z,5.71429
2022-10-23T03:50:11.081Z,6.21429
2022-10-23T03:51:11.100Z,5.92857
2022-10-23T03:52:11.208Z,5.5
2022-10-23T03:53:11.183Z,5.85714
2022-10-23T03:54:11.242Z,5.64286
2022-10-23T03:55:11.257Z,5.35714
2022-10-23T03:56:11.293Z,5.21429
2022-10-23T03:57:11.338Z,5
2022-10-23T03:58:11.375Z,5.35714
2022-10-23T03:59:11.411Z,5.21429
2022-10-23T04:00:11.449Z,5.5
2022-10-23T04:01:11.548Z,5.35714
2022-10-23T04:02:11.603Z,5.35714
2022-10-23T04:03:11.558Z,4.92857
2022-10-23T04:04:11.604Z,4.71429
2022-10-23T04:05:11.649Z,4.85714
2022-10-23T04:06:11.718Z,4.64286
2022-10-23T04:07:11.729Z,4.85714
2022-10-23T04:08:14.191Z,4.35714
2022-10-23T04:10:11.838Z,4.5
2022-10-23T04:11:11.894Z,4.64286
2022-10-23T04:12:11.925Z,4.21429
2022-10-23T04:13:11.973Z,4.42857
2022-10-23T04:14:11.985Z,4.5
2022-10-23T04:15:12.023Z,4.71429
2022-10-23T04:16:12.084Z,4.92857
2022-10-23T04:17:12.099Z,5
2022-10-23T04:18:12.150Z,4.85714
2022-10-23T04:19:12.181Z,5.5
2022-10-23T04:20:12.226Z,5.64286
2022-10-23T04:21:12.246Z,5
2022-10-23T04:22:12.285Z,5.92857
2022-10-23T04:23:12.350Z,5.21429
2022-10-23T04:24:12.382Z,4.85714
2022-10-23T04:25:12.388Z,4.71429
2022-10-23T04:26:12.429Z,4.5
2022-10-23T04:27:12.479Z,5.14286
2022-10-23T04:28:12.495Z,5.5
2022-10-23T04:29:12.527Z,5.14286
2022-10-23T04:30:12.549Z,4.92857
2022-10-23T04:31:12.582Z,5.14286
2022-10-23T04:32:12.615Z,4.85714
2022-10-23T04:33:12.644Z,4.5
2022-10-23T04:34:12.688Z,4.14286
2022-10-23T04:35:12.741Z,4.5
2022-10-23T04:36:12.747Z,4.35714
2022-10-23T04:37:12.793Z,4.42857
2022-10-23T04:38:12.818Z,4.42857
2022-10-23T04:39:12.849Z,4
2022-10-23T04:40:12.879Z,4.64286
2022-10-23T04:41:12.902Z,4.35714
2022-10-23T04:42:13.040Z,3.92857
2022-10-23T04:43:12.970Z,4.14286
2022-10-23T04:44:13.000Z,4.71429
2022-10-23T04:45:13.054Z,4.14286
2022-10-23T04:46:13.089Z,4.71429
2022-10-23T04:47:13.096Z,4
2022-10-23T04:48:13.135Z,4.14286
2022-10-23T04:49:13.153Z,3.85714
2022-10-23T04:50:13.183Z,4
2022-10-23T04:51:13.240Z,4.14286
2022-10-23T04:52:13.280Z,4
2022-10-23T04:53:13.289Z,4.35714
2022-10-23T04:54:13.336Z,4.5
2022-10-23T04:55:13.374Z,4.64286
2022-10-23T04:56:13.383Z,4.21429
2022-10-23T04:57:13.419Z,4.35714
2022-10-23T04:58:13.452Z,4.5
2022-10-23T04:59:13.488Z,4.35714
2022-10-23T05:00:13.541Z,4.14286
2022-10-23T05:01:13.652Z,4.14286
2022-10-23T05:02:13.594Z,4
2022-10-23T05:03:13.620Z,4.64286
2022-10-23T05:04:13.660Z,4.21429
2022-10-23T05:05:13.711Z,4.21429
2022-10-23T05:06:13.720Z,4.14286
2022-10-23T05:07:13.799Z,4.42857
2022-10-23T05:08:17.084Z,4.71429
2022-10-23T05:09:13.822Z,4.35714
2022-10-23T05:10:13.888Z,4.14286
2022-10-23T05:11:13.892Z,4.35714
2022-10-23T05:12:13.918Z,4.35714
2022-10-23T05:13:13.947Z,4.35714
2022-10-23T05:14:13.986Z,3.85714
2022-10-23T05:15:14.034Z,4
2022-10-23T05:16:14.048Z,4.42857
2022-10-23T05:17:14.082Z,4.35714
2022-10-23T05:18:14.116Z,3.85714
2022-10-23T05:19:14.150Z,3.85714
2022-10-23T05:20:14.189Z,3.85714
2022-10-23T05:21:14.211Z,3.85714
2022-10-23T05:22:14.249Z,3.64286
2022-10-23T05:23:14.298Z,4
2022-10-23T05:24:14.312Z,3.92857
2022-10-23T05:25:14.347Z,4
2022-10-23T05:26:14.378Z,4.35714
2022-10-23T05:27:14.417Z,4
2022-10-23T05:28:14.470Z,3.71429
2022-10-23T05:29:14.480Z,3.92857
2022-10-23T05:30:14.535Z,3.85714
2022-10-23T05:31:14.569Z,4
2022-10-23T05:32:14.666Z,3.85714
2022-10-23T05:33:14.635Z,4.14286
2022-10-23T05:34:14.689Z,3.71429
2022-10-23T05:35:14.710Z,3.42857
2022-10-23T05:36:14.759Z,3.42857
2022-10-23T05:37:14.770Z,3.42857
2022-10-23T05:38:14.804Z,4.35714
2022-10-23T05:39:14.842Z,4.14286
2022-10-23T05:40:14.867Z,4.14286
2022-10-23T05:41:14.918Z,4.21429
2022-10-23T05:42:14.933Z,4.35714
2022-10-23T05:43:14.961Z,3.92857
2022-10-23T05:44:14.990Z,3.85714
2022-10-23T05:45:15.046Z,3.64286
2022-10-23T05:46:15.066Z,3.85714
2022-10-23T05:47:15.103Z,3.85714
2022-10-23T05:48:22.849Z,3.92857
2022-10-23T05:49:15.173Z,3.71429
2022-10-23T05:50:15.207Z,3.71429
2022-10-23T05:51:15.234Z,4
2022-10-23T05:52:15.267Z,3.92857
2022-10-23T05:53:15.294Z,3.5
2022-10-23T05:54:15.335Z,3.42857
2022-10-23T05:55:15.372Z,3.64286
2022-10-23T05:56:15.411Z,3.92857
2022-10-23T05:57:15.438Z,3.71429
2022-10-23T05:58:15.461Z,3.92857
2022-10-23T05:59:19.065Z,3.92857
2022-10-23T06:00:15.519Z,3.85714
2022-10-23T06:01:15.615Z,3.85714
2022-10-23T06:02:15.586Z,3.5
2022-10-23T06:03:15.614Z,3.92857
2022-10-23T06:04:15.635Z,3.92857
2022-10-23T06:05:15.665Z,3.71429
2022-10-23T06:06:15.712Z,4
2022-10-23T06:07:15.731Z,3.64286
2022-10-23T06:08:15.769Z,3.92857
2022-10-23T06:09:15.803Z,3.85714
2022-10-23T06:10:15.853Z,3.5
2022-10-23T06:11:15.871Z,3.71429
2022-10-23T06:12:15.898Z,3.64286
2022-10-23T06:13:15.938Z,3.85714
2022-10-23T06:14:15.970Z,4.14286
2022-10-23T06:15:16.022Z,3.92857
2022-10-23T06:16:16.035Z,3.85714
2022-10-23T06:17:16.093Z,4
2022-10-23T06:18:16.108Z,3.71429
2022-10-23T06:19:16.141Z,4
2022-10-23T06:20:16.170Z,3.64286
2022-10-23T06:21:16.205Z,3.64286
2022-10-23T06:22:16.273Z,3.21429
2022-10-23T06:23:16.293Z,3.35714
2022-10-23T06:24:16.297Z,2.85714
2022-10-23T06:25:16.341Z,2.71429
2022-10-23T06:26:16.377Z,2.71429
2022-10-23T06:27:16.436Z,2.5
2022-10-23T06:28:18.366Z,2.21429
2022-10-23T06:29:16.494Z,2.35714
2022-10-23T06:30:16.533Z,2.35714
2022-10-23T06:31:16.563Z,2.5
2022-10-23T06:32:16.606Z,2.92857
2022-10-23T06:33:16.642Z,2.64286
2022-10-23T06:34:16.675Z,2.92857
2022-10-23T06:35:16.702Z,2.92857
2022-10-23T06:36:16.727Z,3.14286
2022-10-23T06:37:16.756Z,2.92857
2022-10-23T06:38:16.789Z,3.42857
2022-10-23T06:39:16.837Z,3.5
2022-10-23T06:40:16.856Z,4
2022-10-23T06:41:16.890Z,4
2022-10-23T06:42:16.920Z,3.42857
2022-10-23T06:43:16.949Z,3.35714
2022-10-23T06:44:17.006Z,3.21429
2022-10-23T06:45:17.042Z,3.5
2022-10-23T06:46:17.061Z,3.71429
2022-10-23T06:48:17.135Z,3.64286
2022-10-23T06:49:17.161Z,3.92857
2022-10-23T06:50:17.199Z,3.85714
2022-10-23T06:51:17.216Z,4.5
2022-10-23T06:52:41.793Z,5
2022-10-23T06:53:17.283Z,5.35714
2022-10-23T06:54:17.310Z,5.21429
2022-10-23T06:55:17.340Z,5.14286
2022-10-23T06:56:17.369Z,4.92857
2022-10-23T06:57:17.402Z,4.85714
2022-10-23T06:58:17.443Z,5
2022-10-23T06:59:17.480Z,5.5
2022-10-23T07:00:17.504Z,5.5
2022-10-23T07:01:17.724Z,5.5
2022-10-23T07:02:17.577Z,5.35714
2022-10-23T07:03:17.610Z,5.42857
2022-10-23T07:04:17.638Z,5.92857
2022-10-23T07:05:17.666Z,5.85714
2022-10-23T07:06:17.699Z,5.92857
2022-10-23T07:07:17.731Z,5.71429
2022-10-23T07:08:17.763Z,6.64286
2022-10-23T07:09:17.788Z,6.21429
2022-10-23T07:10:17.818Z,5.85714
2022-10-23T07:11:17.857Z,6.5
2022-10-23T07:12:17.884Z,6.92857
2022-10-23T07:13:17.913Z,7
2022-10-23T07:14:17.941Z,7.14286
2022-10-23T07:15:17.974Z,7.85714
2022-10-23T07:16:18.018Z,7.92857
2022-10-23T07:17:18.034Z,8.21429
2022-10-23T07:18:18.061Z,7.92857
2022-10-23T07:19:18.088Z,7.64286
2022-10-23T07:20:18.118Z,8.35714
2022-10-23T07:21:18.175Z,8.14286
2022-10-23T07:22:18.177Z,8.5
2022-10-23T07:23:18.213Z,8.42857
2022-10-23T07:24:18.272Z,7.85714
2022-10-23T07:25:18.281Z,8.21429
2022-10-23T07:26:18.317Z,7.92857
2022-10-23T07:27:18.415Z,8.14286
2022-10-23T07:28:18.383Z,8.35714
2022-10-23T07:29:18.430Z,9
2022-10-23T07:30:18.447Z,8.21429
2022-10-23T07:31:18.482Z,8.64286
2022-10-23T07:32:18.513Z,8.14286
2022-10-23T07:33:18.546Z,8.42857
2022-10-23T07:34:18.607Z,7.92857
2022-10-23T07:35:18.768Z,8.5
2022-10-23T07:36:18.647Z,9.21429
2022-10-23T07:37:18.664Z,8.64286
2022-10-23T07:38:18.697Z,8.5
2022-10-23T07:39:18.757Z,8.64286
2022-10-23T07:40:18.763Z,8.64286
2022-10-23T07:41:18.789Z,8.42857
2022-10-23T07:42:18.818Z,8.92857
2022-10-23T07:43:18.928Z,8.42857
2022-10-23T07:44:20.218Z,8.14286
2022-10-23T07:45:18.923Z,8.5
2022-10-23T07:46:18.954Z,8.71429
2022-10-23T07:47:18.987Z,8.21429
2022-10-23T07:48:19.021Z,8.92857
2022-10-23T07:49:19.055Z,8.5
2022-10-23T07:50:19.088Z,8.21429
2022-10-23T07:51:19.120Z,9.14286
2022-10-23T07:52:19.150Z,8.35714
2022-10-23T07:53:19.179Z,8.35714
2022-10-23T07:54:19.213Z,8.5
2022-10-23T07:55:19.246Z,8.71429
2022-10-23T07:56:19.274Z,8.64286
2022-10-23T07:57:19.311Z,8.5
2022-10-23T07:58:19.365Z,8.85714
2022-10-23T07:59:19.393Z,8.5
2022-10-23T08:00:19.451Z,8.42857
2022-10-23T08:01:19.512Z,8.14286
2022-10-23T08:02:19.525Z,8.5
2022-10-23T08:03:19.499Z,8.42857
2022-10-23T08:04:19.553Z,8.5
2022-10-23T08:05:19.588Z,8.71429
2022-10-23T08:06:19.602Z,8.42857
2022-10-23T08:07:19.642Z,9
2022-10-23T08:08:19.674Z,9.42857
2022-10-23T08:09:19.724Z,8.42857
2022-10-23T08:10:19.735Z,8.35714
2022-10-23T08:11:19.782Z,9.85714
2022-10-23T08:12:19.795Z,8
2022-10-23T08:13:19.824Z,8.42857
2022-10-23T08:14:19.872Z,8.92857
2022-10-23T08:15:19.887Z,8.71429
2022-10-23T08:16:19.922Z,8.14286
2022-10-23T08:17:19.957Z,8.5
2022-10-23T08:18:20.010Z,9.14286
2022-10-23T08:19:20.022Z,8.85714
2022-10-23T08:20:20.060Z,9.21429
2022-10-23T08:21:20.100Z,8.35714
2022-10-23T08:22:20.147Z,8.14286
2022-10-23T08:23:20.168Z,7.71429
2022-10-23T08:24:20.179Z,8.71429
2022-10-23T08:25:25.888Z,8
2022-10-23T08:26:20.237Z,8.42857
2022-10-23T08:27:20.289Z,8.5
2022-10-23T08:28:20.301Z,8.85714
2022-10-23T08:29:20.329Z,8.14286
2022-10-23T08:30:20.365Z,8.42857
2022-10-23T08:31:20.406Z,8.64286
2022-10-23T08:32:20.453Z,8.5
2022-10-23T08:33:20.492Z,8.5
2022-10-23T08:34:20.501Z,8.21429
2022-10-23T08:35:20.530Z,8.21429
2022-10-23T08:36:20.564Z,8.5
2022-10-23T08:37:20.616Z,7.92857
2022-10-23T08:38:20.621Z,8.35714
2022-10-23T08:39:20.653Z,8.14286
2022-10-23T08:40:20.704Z,8.14286
2022-10-23T08:41:20.717Z,8
2022-10-23T08:42:20.755Z,8.14286
2022-10-23T08:43:20.791Z,8.14286
2022-10-23T08:44:20.819Z,8.71429
2022-10-23T08:45:20.875Z,9.14286
2022-10-23T08:46:20.892Z,7.85714
2022-10-23T08:47:20.915Z,8.5
2022-10-23T08:48:20.951Z,8.35714
2022-10-23T08:49:20.976Z,7.71429
2022-10-23T08:50:21.140Z,8.92857
2022-10-23T08:51:21.042Z,8
2022-10-23T08:52:21.069Z,7.92857
2022-10-23T08:53:21.123Z,7.92857
2022-10-23T08:54:21.136Z,7.35714
2022-10-23T08:55:21.165Z,7.42857
2022-10-23T08:56:21.196Z,7.14286
2022-10-23T08:57:21.218Z,6.85714
2022-10-23T08:58:21.277Z,6.71429
2022-10-23T08:59:21.280Z,7
2022-10-23T09:00:21.342Z,7
2022-10-23T09:01:21.556Z,7.14286
2022-10-23T09:02:21.479Z,7.14286
2022-10-23T09:03:21.420Z,6.21429
2022-10-23T09:04:21.438Z,6.71429
2022-10-23T09:05:21.477Z,6.35714
2022-10-23T09:06:21.522Z,6.21429
2022-10-23T09:07:21.533Z,6.85714
2022-10-23T09:08:21.591Z,6.14286
2022-10-23T09:09:21.617Z,6.85714
2022-10-23T09:10:21.628Z,6.64286
2022-10-23T09:11:21.659Z,6.14286
2022-10-23T09:12:21.694Z,6.14286
2022-10-23T09:13:21.728Z,6.71429
2022-10-23T09:14:21.772Z,6.5
2022-10-23T09:15:21.781Z,6.42857
2022-10-23T09:16:21.811Z,7.35714
2022-10-23T09:17:21.868Z,6.35714
2022-10-23T09:18:21.878Z,6.42857
2022-10-23T09:19:21.941Z,7.21429
2022-10-23T09:20:21.970Z,5.92857
2022-10-23T09:21:21.978Z,6.64286
2022-10-23T09:22:22.005Z,6.21429
2022-10-23T09:23:22.045Z,6.35714
2022-10-23T09:24:22.072Z,6.21429
2022-10-23T09:25:22.116Z,5.35714
2022-10-23T09:26:22.125Z,5.5
2022-10-23T09:27:22.159Z,5.71429
2022-10-23T09:28:22.201Z,6.14286
2022-10-23T09:29:22.234Z,5.85714
2022-10-23T09:30:22.280Z,5.5
2022-10-23T09:31:22.308Z,5.92857
2022-10-23T09:32:22.317Z,4.85714
2022-10-23T09:33:22.354Z,5.21429
2022-10-23T09:34:22.383Z,5.14286
2022-10-23T09:35:22.437Z,5.14286
2022-10-23T09:36:22.445Z,5.42857
2022-10-23T09:37:22.472Z,6.42857
2022-10-23T09:38:22.495Z,5.42857
2022-10-23T09:39:22.530Z,4.92857
2022-10-23T09:40:22.595Z,5.64286
2022-10-23T09:41:22.589Z,5.21429
2022-10-23T09:42:22.636Z,4.71429
2022-10-23T09:43:22.650Z,4.42857
2022-10-23T09:44:22.696Z,4.35714
2022-10-23T09:45:22.713Z,4.42857
2022-10-23T09:46:22.775Z,4.92857
2022-10-23T09:47:22.772Z,4.5
2022-10-23T09:48:22.802Z,4.21429
2022-10-23T09:49:22.855Z,4.71429
2022-10-23T09:50:22.872Z,5
2022-10-23T09:51:22.903Z,4.42857
2022-10-23T09:52:22.934Z,4.5
2022-10-23T09:53:22.980Z,3.85714
2022-10-23T09:54:23.037Z,4.35714
2022-10-23T09:55:23.055Z,4.35714
2022-10-23T09:56:24.687Z,4.5
2022-10-23T09:57:23.120Z,4.35714
2022-10-23T09:58:23.156Z,3.85714
2022-10-23T09:59:23.212Z,4.21429
2022-10-23T10:00:23.227Z,4.21429
2022-10-23T10:01:23.696Z,3.85714
2022-10-23T10:02:23.329Z,4.42857
2022-10-23T10:03:23.345Z,4.42857
2022-10-23T10:04:23.355Z,4.35714
2022-10-23T10:05:23.382Z,5.14286
2022-10-23T10:06:23.408Z,5
2022-10-23T10:07:23.453Z,5.14286
2022-10-23T10:08:23.463Z,5.42857
2022-10-23T10:09:23.519Z,5.14286
2022-10-23T10:10:23.538Z,4.92857
2022-10-23T10:11:23.570Z,4.35714
2022-10-23T10:12:23.602Z,4.42857
2022-10-23T10:13:23.658Z,4.71429
2022-10-23T10:14:23.673Z,5.92857
2022-10-23T10:15:23.712Z,4.64286
2022-10-23T10:16:23.758Z,5.35714
2022-10-23T10:17:23.777Z,4.35714
2022-10-23T10:18:23.815Z,4.64286
2022-10-23T10:19:23.864Z,7.71429
2022-10-23T10:20:23.879Z,6.35714
2022-10-23T10:21:23.912Z,5
2022-10-23T10:22:23.951Z,5
2022-10-23T10:23:23.985Z,4.85714
2022-10-23T10:24:24.030Z,5.42857
2022-10-23T10:25:24.045Z,5.42857
2022-10-23T10:26:24.125Z,9.14286
2022-10-23T10:27:24.115Z,6.35714
2022-10-23T10:28:24.153Z,5.14286
2022-10-23T10:29:24.199Z,6.85714
2022-10-23T10:30:24.215Z,9.5
2022-10-23T10:31:24.246Z,5.14286
2022-10-23T10:32:24.278Z,5.42857
2022-10-23T10:33:24.302Z,6.14286
2022-10-23T10:34:24.355Z,10.1429
2022-10-23T10:35:24.364Z,5.42857
2022-10-23T10:37:24.429Z,4.64286
2022-10-23T10:38:24.460Z,5.14286
2022-10-23T10:39:24.510Z,6.71429
2022-10-23T10:40:24.515Z,4.92857
2022-10-23T10:41:24.546Z,5.5
2022-10-23T10:42:24.573Z,4.85714
2022-10-23T10:43:24.601Z,5.35714
2022-10-23T10:44:24.661Z,4.42857
2022-10-23T10:45:24.663Z,4.35714
2022-10-23T10:46:24.715Z,4.21429
2022-10-23T10:47:24.728Z,5.5
2022-10-23T10:48:24.755Z,4.64286
2022-10-23T10:49:24.808Z,5.21429
2022-10-23T10:50:24.818Z,4.85714
2022-10-23T10:51:24.858Z,4.21429
2022-10-23T10:52:24.891Z,4.85714
2022-10-23T10:53:24.938Z,4.71429
2022-10-23T10:54:24.955Z,4.5
2022-10-23T10:55:24.986Z,4.14286
2022-10-23T10:56:25.020Z,4
2022-10-23T10:57:25.052Z,5
2022-10-23T10:58:25.107Z,4.92857
2022-10-23T10:59:25.116Z,4.21429
2022-10-23T11:00:25.167Z,3.92857
2022-10-23T11:01:25.295Z,4.35714
2022-10-23T11:02:25.276Z,3.85714
2022-10-23T11:03:25.229Z,4.14286
2022-10-23T11:04:25.257Z,4
2022-10-23T11:05:25.293Z,4
2022-10-23T11:06:25.350Z,4
2022-10-23T11:07:25.347Z,3.71429
2022-10-23T11:08:25.373Z,4.64286
2022-10-23T11:09:25.398Z,3.85714
2022-10-23T11:10:25.427Z,4
2022-10-23T11:11:25.473Z,4.64286
2022-10-23T11:12:25.483Z,3.92857
2022-10-23T11:13:25.516Z,3.5
2022-10-23T11:14:25.549Z,4.14286
2022-10-23T11:15:25.601Z,4.42857
2022-10-23T11:16:25.611Z,3.85714
2022-10-23T11:17:25.644Z,4.14286
2022-10-23T11:18:25.677Z,3.42857
2022-10-23T11:19:25.714Z,3.92857
2022-10-23T11:20:25.761Z,3.71429
2022-10-23T11:21:25.773Z,4.21429
2022-10-23T11:22:25.797Z,4.5
2022-10-23T11:23:25.829Z,3.85714
2022-10-23T11:24:25.856Z,3.64286
2022-10-23T11:25:25.897Z,3.85714
2022-10-23T11:26:25.916Z,3
2022-10-23T11:27:25.945Z,4.14286
2022-10-23T11:28:25.986Z,4
2022-10-23T11:29:26.009Z,3.42857
2022-10-23T11:30:26.052Z,3.5
2022-10-23T11:31:26.050Z,3.71429
2022-10-23T11:32:26.120Z,3.64286
2022-10-23T11:33:26.116Z,3.35714
2022-10-23T11:34:26.144Z,4.71429
2022-10-23T11:35:26.197Z,3.5
2022-10-23T11:36:26.213Z,3.42857
2022-10-23T11:37:26.236Z,3.14286
2022-10-23T11:38:26.266Z,2.92857
2022-10-23T11:39:26.319Z,3.21429
2022-10-23T11:40:26.337Z,3.42857
2022-10-23T11:41:27.113Z,3.35714
2022-10-23T11:42:26.391Z,3.64286
2022-10-23T11:43:26.419Z,3.42857
2022-10-23T11:44:26.468Z,3
2022-10-23T11:45:26.492Z,3.14286
2022-10-23T11:46:26.517Z,3.64286
2022-10-23T11:47:26.546Z,3.5
2022-10-23T11:48:26.582Z,3.35714
2022-10-23T11:49:26.613Z,3.35714
2022-10-23T11:50:26.666Z,3
2022-10-23T11:51:26.705Z,3.71429
2022-10-23T11:52:26.708Z,3
2022-10-23T11:53:26.744Z,3.42857
2022-10-23T11:54:26.773Z,3.21429
2022-10-23T11:55:26.809Z,2.92857
2022-10-23T11:56:26.862Z,3.21429
2022-10-23T11:57:26.917Z,3.14286
2022-10-23T11:58:26.896Z,3
2022-10-23T11:59:26.939Z,2.92857
2022-10-23T12:00:26.964Z,3
2022-10-23T12:01:27.105Z,2.85714
2022-10-23T12:02:27.085Z,3
2022-10-23T12:03:27.053Z,3
2022-10-23T12:04:27.111Z,2.85714
2022-10-23T12:05:27.126Z,3
2022-10-23T12:06:27.171Z,3
2022-10-23T12:07:27.191Z,3
2022-10-23T12:08:27.222Z,3.14286
2022-10-23T12:09:27.263Z,2.92857
2022-10-23T12:10:27.275Z,3.21429
2022-10-23T12:11:27.758Z,2.71429
2022-10-23T12:12:27.336Z,3.14286
2022-10-23T12:13:27.395Z,3.14286
2022-10-23T12:14:27.407Z,3
2022-10-23T12:15:27.445Z,2.5
2022-10-23T12:16:27.471Z,2.92857
2022-10-23T12:17:27.499Z,2.42857
2022-10-23T12:18:27.547Z,2.5
2022-10-23T12:19:27.567Z,2.71429
2022-10-23T12:20:27.582Z,2.5
2022-10-23T12:21:27.623Z,2.71429
2022-10-23T12:22:27.698Z,2.71429
2022-10-23T12:23:27.703Z,2.85714
2022-10-23T12:24:27.738Z,2.64286
2022-10-23T12:25:27.739Z,2.85714
2022-10-23T12:26:27.766Z,2.64286
2022-10-23T12:27:27.825Z,2.42857
2022-10-23T12:28:27.840Z,2.21429
2022-10-23T12:29:27.879Z,2.35714
2022-10-23T12:30:27.910Z,2.5
2022-10-23T12:31:27.945Z,2.42857
2022-10-23T12:32:28.004Z,2.71429
2022-10-23T12:33:28.015Z,2.71429